sensor_id;sensor_type;location;lat;lon;timestamp;P1;durP1;ratioP1;P2;durP2;ratioP2
59408;SDS011;45213;32.654;-115.458;2022-10-23T00:01:26;11.38;;;2.50;;
59408;SDS011;45213;32.654;-115.458;2022-10-23T00:04:04;13.20;;;2.60;;
59408;SDS011;45213;32.654;-115.458;2022-10-23T00:06:33;14.25;;;2.85;;
59408;SDS011;45213;32.654;-115.458;2022-10-23T00:09:00;9.93;;;2.55;;
59408;SDS011;45213;32.654;-115.458;2022-10-23T00:11:29;13.70;;;2.38;;
59408;SDS011;45213;32.654;-115.458;2022-10-23T00:13:59;15.45;;;2.95;;
59408;SDS011;45213;32.654;-115.458;2022-10-23T00:16:27;15.98;;;3.38;;
59408;SDS011;45213;32.654;-115.458;2022-10-23T00:18:54;24.73;;;3.60;;
59408;SDS011;45213;32.654;-115.458;2022-10-23T00:21:21;20.98;;;3.70;;
59408;SDS011;45213;32.654;-115.458;2022-10-23T00:23:48;32.47;;;4.53;;
59408;SDS011;45213;32.654;-115.458;2022-10-23T00:26:14;28.63;;;4.78;;
59408;SDS011;45213;32.654;-115.458;2022-10-23T00:28:45;22.48;;;3.85;;
59408;SDS011;45213;32.654;-115.458;2022-10-23T00:31:14;17.23;;;3.92;;
59408;SDS011;45213;32.654;-115.458;2022-10-23T00:33:42;16.25;;;3.20;;
59408;SDS011;45213;32.654;-115.458;2022-10-23T00:36:10;15.60;;;4.10;;
59408;SDS011;45213;32.654;-115.458;2022-10-23T00:38:38;17.95;;;3.72;;
59408;SDS011;45213;32.654;-115.458;2022-10-23T00:41:06;16.77;;;4.00;;
59408;SDS011;45213;32.654;-115.458;2022-10-23T00:43:34;13.73;;;3.65;;
59408;SDS011;45213;32.654;-115.458;2022-10-23T00:46:19;14.15;;;3.25;;
59408;SDS011;45213;32.654;-115.458;2022-10-23T00:48:45;18.45;;;3.60;;
59408;SDS011;45213;32.654;-115.458;2022-10-23T00:51:12;16.88;;;2.92;;
59408;SDS011;45213;32.654;-115.458;2022-10-23T00:53:38;14.27;;;3.53;;
59408;SDS011;45213;32.654;-115.458;2022-10-23T00:56:05;19.45;;;3.42;;
59408;SDS011;45213;32.654;-115.458;2022-10-23T00:58:32;13.90;;;3.38;;
59408;SDS011;45213;32.654;-115.458;2022-10-23T01:00:59;17.42;;;3.28;;
59408;SDS011;45213;32.654;-115.458;2022-10-23T01:03:26;16.60;;;4.50;;
59408;SDS011;45213;32.654;-115.458;2022-10-23T01:06:02;14.50;;;3.33;;
59408;SDS011;45213;32.654;-115.458;2022-10-23T01:11:38;16.08;;;3.78;;
59408;SDS011;45213;32.654;-115.458;2022-10-23T01:14:25;18.20;;;4.20;;
59408;SDS011;45213;32.654;-115.458;2022-10-23T01:17:08;23.85;;;4.53;;
59408;SDS011;45213;32.654;-115.458;2022-10-23T01:25:25;22.85;;;5.15;;
59408;SDS011;45213;32.654;-115.458;2022-10-23T01:28:15;33.13;;;5.63;;
59408;SDS011;45213;32.654;-115.458;2022-10-23T01:30:53;40.53;;;6.35;;
59408;SDS011;45213;32.654;-115.458;2022-10-23T01:33:35;43.78;;;6.72;;
59408;SDS011;45213;32.654;-115.458;2022-10-23T01:36:23;39.15;;;6.30;;
59408;SDS011;45213;32.654;-115.458;2022-10-23T01:38:57;39.35;;;7.03;;
59408;SDS011;45213;32.654;-115.458;2022-10-23T01:44:01;45.75;;;7.95;;
59408;SDS011;45213;32.654;-115.458;2022-10-23T01:46:35;39.85;;;7.18;;
59408;SDS011;45213;32.654;-115.458;2022-10-23T01:49:05;38.70;;;6.07;;
59408;SDS011;45213;32.654;-115.458;2022-10-23T01:51:35;52.75;;;6.65;;
59408;SDS011;45213;32.654;-115.458;2022-10-23T01:54:08;39.50;;;7.28;;
59408;SDS011;45213;32.654;-115.458;2022-10-23T01:56:40;39.13;;;6.47;;
59408;SDS011;45213;32.654;-115.458;2022-10-23T01:59:12;54.95;;;7.18;;
59408;SDS011;45213;32.654;-115.458;2022-10-23T02:01:44;33.42;;;5.32;;
59408;SDS011;45213;32.654;-115.458;2022-10-23T02:04:18;25.27;;;5.95;;
59408;SDS011;45213;32.654;-115.458;2022-10-23T02:06:52;39.80;;;6.50;;
59408;SDS011;45213;32.654;-115.458;2022-10-23T02:09:18;27.00;;;5.43;;
59408;SDS011;45213;32.654;-115.458;2022-10-23T02:12:28;27.60;;;4.43;;
59408;SDS011;45213;32.654;-115.458;2022-10-23T02:17:20;22.17;;;5.22;;
59408;SDS011;45213;32.654;-115.458;2022-10-23T02:20:08;16.65;;;4.65;;
59408;SDS011;45213;32.654;-115.458;2022-10-23T02:23:21;20.20;;;5.05;;
59408;SDS011;45213;32.654;-115.458;2022-10-23T02:26:32;20.60;;;4.95;;
59408;SDS011;45213;32.654;-115.458;2022-10-23T02:28:53;13.80;;;3.93;;
59408;SDS011;45213;32.654;-115.458;2022-10-23T02:31:30;13.80;;;4.55;;
59408;SDS011;45213;32.654;-115.458;2022-10-23T02:33:57;17.83;;;5.28;;
59408;SDS011;45213;32.654;-115.458;2022-10-23T02:36:24;15.90;;;8.95;;
59408;SDS011;45213;32.654;-115.458;2022-10-23T02:38:51;26.17;;;5.53;;
59408;SDS011;45213;32.654;-115.458;2022-10-23T02:44:21;18.58;;;5.40;;
59408;SDS011;45213;32.654;-115.458;2022-10-23T02:50:02;15.85;;;5.53;;
59408;SDS011;45213;32.654;-115.458;2022-10-23T02:52:49;10.80;;;4.88;;
59408;SDS011;45213;32.654;-115.458;2022-10-23T03:00:44;15.15;;;4.47;;
59408;SDS011;45213;32.654;-115.458;2022-10-23T03:03:27;21.92;;;4.85;;
59408;SDS011;45213;32.654;-115.458;2022-10-23T03:05:58;23.33;;;5.13;;
59408;SDS011;45213;32.654;-115.458;2022-10-23T03:08:25;21.05;;;4.88;;
59408;SDS011;45213;32.654;-115.458;2022-10-23T03:10:51;16.13;;;5.05;;
59408;SDS011;45213;32.654;-115.458;2022-10-23T03:13:20;14.25;;;4.05;;
59408;SDS011;45213;32.654;-115.458;2022-10-23T03:15:47;19.52;;;4.90;;
59408;SDS011;45213;32.654;-115.458;2022-10-23T03:18:14;19.42;;;4.95;;
59408;SDS011;45213;32.654;-115.458;2022-10-23T03:20:45;17.33;;;5.25;;
59408;SDS011;45213;32.654;-115.458;2022-10-23T03:23:13;27.52;;;8.85;;
59408;SDS011;45213;32.654;-115.458;2022-10-23T03:25:41;27.02;;;7.90;;
59408;SDS011;45213;32.654;-115.458;2022-10-23T03:28:09;29.50;;;6.93;;
59408;SDS011;45213;32.654;-115.458;2022-10-23T03:30:36;26.75;;;5.97;;
59408;SDS011;45213;32.654;-115.458;2022-10-23T03:33:02;31.55;;;5.60;;
59408;SDS011;45213;32.654;-115.458;2022-10-23T03:35:36;39.90;;;6.05;;
59408;SDS011;45213;32.654;-115.458;2022-10-23T03:38:17;38.97;;;6.50;;
59408;SDS011;45213;32.654;-115.458;2022-10-23T03:40:44;36.47;;;7.00;;
59408;SDS011;45213;32.654;-115.458;2022-10-23T03:43:11;39.28;;;5.93;;
59408;SDS011;45213;32.654;-115.458;2022-10-23T03:45:39;39.58;;;7.57;;
59408;SDS011;45213;32.654;-115.458;2022-10-23T03:48:07;49.58;;;7.78;;
59408;SDS011;45213;32.654;-115.458;2022-10-23T03:50:34;50.10;;;7.18;;
59408;SDS011;45213;32.654;-115.458;2022-10-23T03:53:01;55.60;;;8.43;;
59408;SDS011;45213;32.654;-115.458;2022-10-23T03:55:28;47.25;;;7.78;;
59408;SDS011;45213;32.654;-115.458;2022-10-23T03:57:54;42.88;;;6.82;;
59408;SDS011;45213;32.654;-115.458;2022-10-23T04:00:21;56.92;;;7.00;;
59408;SDS011;45213;32.654;-115.458;2022-10-23T04:02:48;42.20;;;7.30;;
59408;SDS011;45213;32.654;-115.458;2022-10-23T04:05:15;36.75;;;6.85;;
59408;SDS011;45213;32.654;-115.458;2022-10-23T04:07:51;34.53;;;6.50;;
59408;SDS011;45213;32.654;-115.458;2022-10-23T04:10:18;32.58;;;7.03;;
59408;SDS011;45213;32.654;-115.458;2022-10-23T04:12:44;25.85;;;5.53;;
59408;SDS011;45213;32.654;-115.458;2022-10-23T04:15:11;25.58;;;5.60;;
59408;SDS011;45213;32.654;-115.458;2022-10-23T04:17:40;18.00;;;4.28;;
59408;SDS011;45213;32.654;-115.458;2022-10-23T04:20:06;17.45;;;5.18;;
59408;SDS011;45213;32.654;-115.458;2022-10-23T04:22:33;14.93;;;4.80;;
59408;SDS011;45213;32.654;-115.458;2022-10-23T04:25:00;13.02;;;4.47;;
59408;SDS011;45213;32.654;-115.458;2022-10-23T04:27:28;12.10;;;4.30;;
59408;SDS011;45213;32.654;-115.458;2022-10-23T04:29:55;13.38;;;4.50;;
59408;SDS011;45213;32.654;-115.458;2022-10-23T04:32:21;15.23;;;4.50;;
59408;SDS011;45213;32.654;-115.458;2022-10-23T04:34:48;15.35;;;4.88;;
59408;SDS011;45213;32.654;-115.458;2022-10-23T04:37:14;13.38;;;4.68;;
59408;SDS011;45213;32.654;-115.458;2022-10-23T04:39:43;10.65;;;4.47;;
59408;SDS011;45213;32.654;-115.458;2022-10-23T04:42:12;11.50;;;4.53;;
59408;SDS011;45213;32.654;-115.458;2022-10-23T04:44:38;12.20;;;4.47;;
59408;SDS011;45213;32.654;-115.458;2022-10-23T04:47:06;13.32;;;4.18;;
59408;SDS011;45213;32.654;-115.458;2022-10-23T04:49:39;8.80;;;3.92;;
59408;SDS011;45213;32.654;-115.458;2022-10-23T04:52:11;11.15;;;4.32;;
59408;SDS011;45213;32.654;-115.458;2022-10-23T04:54:56;10.10;;;4.15;;
59408;SDS011;45213;32.654;-115.458;2022-10-23T04:57:31;13.73;;;4.35;;
59408;SDS011;45213;32.654;-115.458;2022-10-23T05:00:08;7.40;;;4.03;;
59408;SDS011;45213;32.654;-115.458;2022-10-23T05:02:46;10.82;;;4.40;;
59408;SDS011;45213;32.654;-115.458;2022-10-23T05:05:15;12.25;;;4.60;;
59408;SDS011;45213;32.654;-115.458;2022-10-23T05:08:17;12.02;;;4.07;;
59408;SDS011;45213;32.654;-115.458;2022-10-23T05:11:07;13.95;;;4.57;;
59408;SDS011;45213;32.654;-115.458;2022-10-23T05:13:39;10.68;;;4.10;;
59408;SDS011;45213;32.654;-115.458;2022-10-23T05:16:07;10.02;;;4.40;;
59408;SDS011;45213;32.654;-115.458;2022-10-23T05:18:38;9.57;;;4.15;;
59408;SDS011;45213;32.654;-115.458;2022-10-23T05:21:15;9.90;;;4.60;;
59408;SDS011;45213;32.654;-115.458;2022-10-23T05:23:48;12.90;;;4.43;;
59408;SDS011;45213;32.654;-115.458;2022-10-23T05:26:15;12.75;;;4.57;;
59408;SDS011;45213;32.654;-115.458;2022-10-23T05:28:44;9.45;;;4.40;;
59408;SDS011;45213;32.654;-115.458;2022-10-23T05:31:14;11.30;;;4.85;;
59408;SDS011;45213;32.654;-115.458;2022-10-23T05:33:44;9.55;;;4.55;;
59408;SDS011;45213;32.654;-115.458;2022-10-23T05:36:11;11.85;;;4.63;;
59408;SDS011;45213;32.654;-115.458;2022-10-23T05:38:39;10.55;;;4.38;;
59408;SDS011;45213;32.654;-115.458;2022-10-23T05:41:12;12.00;;;4.53;;
59408;SDS011;45213;32.654;-115.458;2022-10-23T05:43:39;11.82;;;4.53;;
59408;SDS011;45213;32.654;-115.458;2022-10-23T05:46:29;12.70;;;4.97;;
59408;SDS011;45213;32.654;-115.458;2022-10-23T05:49:11;11.10;;;4.72;;
59408;SDS011;45213;32.654;-115.458;2022-10-23T05:51:49;8.27;;;4.80;;
59408;SDS011;45213;32.654;-115.458;2022-10-23T05:54:34;9.23;;;4.65;;
59408;SDS011;45213;32.654;-115.458;2022-10-23T05:57:20;9.20;;;4.85;;
59408;SDS011;45213;32.654;-115.458;2022-10-23T05:59:50;8.30;;;3.65;;
59408;SDS011;45213;32.654;-115.458;2022-10-23T06:02:40;10.30;;;4.53;;
59408;SDS011;45213;32.654;-115.458;2022-10-23T06:05:21;9.23;;;4.43;;
59408;SDS011;45213;32.654;-115.458;2022-10-23T06:07:58;10.80;;;4.30;;
59408;SDS011;45213;32.654;-115.458;2022-10-23T06:10:25;9.23;;;3.80;;
59408;SDS011;45213;32.654;-115.458;2022-10-23T06:12:55;11.60;;;4.60;;
59408;SDS011;45213;32.654;-115.458;2022-10-23T06:15:24;7.53;;;3.65;;
59408;SDS011;45213;32.654;-115.458;2022-10-23T06:18:11;8.27;;;4.38;;
59408;SDS011;45213;32.654;-115.458;2022-10-23T06:20:50;9.00;;;4.00;;
59408;SDS011;45213;32.654;-115.458;2022-10-23T06:23:23;7.85;;;4.20;;
59408;SDS011;45213;32.654;-115.458;2022-10-23T06:26:11;7.45;;;4.18;;
59408;SDS011;45213;32.654;-115.458;2022-10-23T06:29:02;7.70;;;4.03;;
59408;SDS011;45213;32.654;-115.458;2022-10-23T06:31:29;7.30;;;4.25;;
59408;SDS011;45213;32.654;-115.458;2022-10-23T06:33:57;8.82;;;3.97;;
59408;SDS011;45213;32.654;-115.458;2022-10-23T06:36:25;10.63;;;3.97;;
59408;SDS011;45213;32.654;-115.458;2022-10-23T06:38:58;8.07;;;4.10;;
59408;SDS011;45213;32.654;-115.458;2022-10-23T06:41:45;7.82;;;3.83;;
59408;SDS011;45213;32.654;-115.458;2022-10-23T06:44:31;8.13;;;4.00;;
59408;SDS011;45213;32.654;-115.458;2022-10-23T06:47:07;6.65;;;4.00;;
59408;SDS011;45213;32.654;-115.458;2022-10-23T06:49:57;48.90;;;7.40;;
59408;SDS011;45213;32.654;-115.458;2022-10-23T06:52:23;7.47;;;3.67;;
59408;SDS011;45213;32.654;-115.458;2022-10-23T06:54:50;6.20;;;3.47;;
59408;SDS011;45213;32.654;-115.458;2022-10-23T06:57:23;6.10;;;3.30;;
59408;SDS011;45213;32.654;-115.458;2022-10-23T06:59:50;7.75;;;3.53;;
59408;SDS011;45213;32.654;-115.458;2022-10-23T07:02:17;9.43;;;3.78;;
59408;SDS011;45213;32.654;-115.458;2022-10-23T07:04:43;6.70;;;3.55;;
59408;SDS011;45213;32.654;-115.458;2022-10-23T07:07:15;5.55;;;3.70;;
59408;SDS011;45213;32.654;-115.458;2022-10-23T07:09:45;8.75;;;3.80;;
59408;SDS011;45213;32.654;-115.458;2022-10-23T07:12:24;7.78;;;3.60;;
59408;SDS011;45213;32.654;-115.458;2022-10-23T07:15:11;7.20;;;3.45;;
59408;SDS011;45213;32.654;-115.458;2022-10-23T07:17:38;11.32;;;3.63;;
59408;SDS011;45213;32.654;-115.458;2022-10-23T07:20:05;9.23;;;3.92;;
59408;SDS011;45213;32.654;-115.458;2022-10-23T07:22:32;5.55;;;3.88;;
59408;SDS011;45213;32.654;-115.458;2022-10-23T07:25:09;8.27;;;3.78;;
59408;SDS011;45213;32.654;-115.458;2022-10-23T07:27:37;6.57;;;3.25;;
59408;SDS011;45213;32.654;-115.458;2022-10-23T07:30:07;7.70;;;3.67;;
59408;SDS011;45213;32.654;-115.458;2022-10-23T07:32:42;10.07;;;3.65;;
59408;SDS011;45213;32.654;-115.458;2022-10-23T07:35:28;6.35;;;3.70;;
59408;SDS011;45213;32.654;-115.458;2022-10-23T07:38:21;6.60;;;3.70;;
59408;SDS011;45213;32.654;-115.458;2022-10-23T07:40:52;9.90;;;3.85;;
59408;SDS011;45213;32.654;-115.458;2022-10-23T07:43:19;7.38;;;3.65;;
59408;SDS011;45213;32.654;-115.458;2022-10-23T07:45:46;5.18;;;3.15;;
59408;SDS011;45213;32.654;-115.458;2022-10-23T07:48:23;9.80;;;3.45;;
59408;SDS011;45213;32.654;-115.458;2022-10-23T07:50:58;5.85;;;3.28;;
59408;SDS011;45213;32.654;-115.458;2022-10-23T07:53:26;5.95;;;3.03;;
59408;SDS011;45213;32.654;-115.458;2022-10-23T07:56:03;6.43;;;2.83;;
59408;SDS011;45213;32.654;-115.458;2022-10-23T07:59:01;5.50;;;3.40;;
59408;SDS011;45213;32.654;-115.458;2022-10-23T08:01:31;7.13;;;2.90;;
59408;SDS011;45213;32.654;-115.458;2022-10-23T08:04:00;6.22;;;2.75;;
59408;SDS011;45213;32.654;-115.458;2022-10-23T08:06:27;6.38;;;2.72;;
59408;SDS011;45213;32.654;-115.458;2022-10-23T08:08:55;5.22;;;2.63;;
59408;SDS011;45213;32.654;-115.458;2022-10-23T08:11:23;5.47;;;2.58;;
59408;SDS011;45213;32.654;-115.458;2022-10-23T08:13:57;5.10;;;2.47;;
59408;SDS011;45213;32.654;-115.458;2022-10-23T08:16:28;5.68;;;2.72;;
59408;SDS011;45213;32.654;-115.458;2022-10-23T08:19:06;4.82;;;2.67;;
59408;SDS011;45213;32.654;-115.458;2022-10-23T08:21:36;4.80;;;2.72;;
59408;SDS011;45213;32.654;-115.458;2022-10-23T08:24:03;5.43;;;2.80;;
59408;SDS011;45213;32.654;-115.458;2022-10-23T08:26:30;9.13;;;3.03;;
59408;SDS011;45213;32.654;-115.458;2022-10-23T08:28:57;13.05;;;3.33;;
59408;SDS011;45213;32.654;-115.458;2022-10-23T08:31:25;13.13;;;3.42;;
59408;SDS011;45213;32.654;-115.458;2022-10-23T08:34:10;8.35;;;2.90;;
59408;SDS011;45213;32.654;-115.458;2022-10-23T08:36:37;8.45;;;2.92;;
59408;SDS011;45213;32.654;-115.458;2022-10-23T08:39:05;10.73;;;2.80;;
59408;SDS011;45213;32.654;-115.458;2022-10-23T08:41:39;8.40;;;2.30;;
59408;SDS011;45213;32.654;-115.458;2022-10-23T08:44:29;9.30;;;2.90;;
59408;SDS011;45213;32.654;-115.458;2022-10-23T08:49:50;6.57;;;2.35;;
59408;SDS011;45213;32.654;-115.458;2022-10-23T08:56:41;4.28;;;1.95;;
59408;SDS011;45213;32.654;-115.458;2022-10-23T08:58:44;12.77;;;2.88;;
59408;SDS011;45213;32.654;-115.458;2022-10-23T09:04:05;4.45;;;2.03;;
59408;SDS011;45213;32.654;-115.458;2022-10-23T09:06:51;4.70;;;1.73;;
59408;SDS011;45213;32.654;-115.458;2022-10-23T09:12:25;3.30;;;1.90;;
59408;SDS011;45213;32.654;-115.458;2022-10-23T09:17:59;4.88;;;1.73;;
59408;SDS011;45213;32.654;-115.458;2022-10-23T09:20:33;3.53;;;1.85;;
59408;SDS011;45213;32.654;-115.458;2022-10-23T09:23:02;2.53;;;1.42;;
59408;SDS011;45213;32.654;-115.458;2022-10-23T09:25:38;3.38;;;1.60;;
59408;SDS011;45213;32.654;-115.458;2022-10-23T09:28:10;3.88;;;1.58;;
59408;SDS011;45213;32.654;-115.458;2022-10-23T09:30:44;3.15;;;1.50;;
59408;SDS011;45213;32.654;-115.458;2022-10-23T09:33:12;2.65;;;1.48;;
59408;SDS011;45213;32.654;-115.458;2022-10-23T09:35:54;3.17;;;1.40;;
59408;SDS011;45213;32.654;-115.458;2022-10-23T09:41:45;4.72;;;2.40;;
59408;SDS011;45213;32.654;-115.458;2022-10-23T09:43:59;3.75;;;2.13;;
59408;SDS011;45213;32.654;-115.458;2022-10-23T09:49:04;4.78;;;2.05;;
59408;SDS011;45213;32.654;-115.458;2022-10-23T09:51:32;5.90;;;2.28;;
59408;SDS011;45213;32.654;-115.458;2022-10-23T09:53:59;6.57;;;3.00;;
59408;SDS011;45213;32.654;-115.458;2022-10-23T09:56:28;4.88;;;2.38;;
59408;SDS011;45213;32.654;-115.458;2022-10-23T10:01:30;4.75;;;2.25;;
59408;SDS011;45213;32.654;-115.458;2022-10-23T10:04:31;5.10;;;2.58;;
59408;SDS011;45213;32.654;-115.458;2022-10-23T10:07:00;4.03;;;2.53;;
59408;SDS011;45213;32.654;-115.458;2022-10-23T10:09:28;4.20;;;2.53;;
59408;SDS011;45213;32.654;-115.458;2022-10-23T10:11:56;6.10;;;2.60;;
59408;SDS011;45213;32.654;-115.458;2022-10-23T10:20:00;4.53;;;2.42;;
59408;SDS011;45213;32.654;-115.458;2022-10-23T10:25:16;3.95;;;2.25;;
59408;SDS011;45213;32.654;-115.458;2022-10-23T10:27:57;3.22;;;2.10;;
59408;SDS011;45213;32.654;-115.458;2022-10-23T10:33:50;4.03;;;1.27;;
59408;SDS011;45213;32.654;-115.458;2022-10-23T10:41:56;3.60;;;1.38;;
59408;SDS011;45213;32.654;-115.458;2022-10-23T10:47:19;1.40;;;0.90;;
59408;SDS011;45213;32.654;-115.458;2022-10-23T10:50:17;4.07;;;1.10;;
59408;SDS011;45213;32.654;-115.458;2022-10-23T10:58:27;2.83;;;0.50;;
59408;SDS011;45213;32.654;-115.458;2022-10-23T11:06:38;2.17;;;0.45;;
59408;SDS011;45213;32.654;-115.458;2022-10-23T11:09:13;2.38;;;0.40;;
59408;SDS011;45213;32.654;-115.458;2022-10-23T11:11:51;3.30;;;0.40;;
59408;SDS011;45213;32.654;-115.458;2022-10-23T11:14:20;0.52;;;0.40;;
59408;SDS011;45213;32.654;-115.458;2022-10-23T11:16:54;2.45;;;0.30;;
59408;SDS011;45213;32.654;-115.458;2022-10-23T11:19:31;1.35;;;0.40;;
59408;SDS011;45213;32.654;-115.458;2022-10-23T11:38:46;0.60;;;0.28;;
59408;SDS011;45213;32.654;-115.458;2022-10-23T11:41:16;0.30;;;0.20;;
59408;SDS011;45213;32.654;-115.458;2022-10-23T11:43:49;1.45;;;0.40;;
59408;SDS011;45213;32.654;-115.458;2022-10-23T11:48:48;0.80;;;0.22;;
59408;SDS011;45213;32.654;-115.458;2022-10-23T11:51:25;0.40;;;0.30;;
59408;SDS011;45213;32.654;-115.458;2022-10-23T11:56:49;1.55;;;0.20;;
59408;SDS011;45213;32.654;-115.458;2022-10-23T11:59:25;1.88;;;0.30;;
59408;SDS011;45213;32.654;-115.458;2022-10-23T12:01:55;3.72;;;0.45;;
59408;SDS011;45213;32.654;-115.458;2022-10-23T12:04:26;2.83;;;0.40;;
59408;SDS011;45213;32.654;-115.458;2022-10-23T12:07:13;2.42;;;0.40;;
59408;SDS011;45213;32.654;-115.458;2022-10-23T12:10:05;1.67;;;0.50;;
59408;SDS011;45213;32.654;-115.458;2022-10-23T12:13:03;2.92;;;0.50;;
59408;SDS011;45213;32.654;-115.458;2022-10-23T12:15:32;3.35;;;0.63;;
59408;SDS011;45213;32.654;-115.458;2022-10-23T12:18:12;1.92;;;0.40;;
59408;SDS011;45213;32.654;-115.458;2022-10-23T12:20:58;2.05;;;0.60;;
59408;SDS011;45213;32.654;-115.458;2022-10-23T12:38:53;4.35;;;0.70;;
59408;SDS011;45213;32.654;-115.458;2022-10-23T12:41:31;1.92;;;0.50;;
59408;SDS011;45213;32.654;-115.458;2022-10-23T12:44:03;2.17;;;0.50;;
59408;SDS011;45213;32.654;-115.458;2022-10-23T12:46:35;1.90;;;0.98;;
59408;SDS011;45213;32.654;-115.458;2022-10-23T12:49:17;10.70;;;3.85;;
59408;SDS011;45213;32.654;-115.458;2022-10-23T12:51:53;12.30;;;6.13;;
59408;SDS011;45213;32.654;-115.458;2022-10-23T12:54:25;7.50;;;3.97;;
59408;SDS011;45213;32.654;-115.458;2022-10-23T12:56:52;7.45;;;4.28;;
59408;SDS011;45213;32.654;-115.458;2022-10-23T12:59:20;6.85;;;3.03;;
59408;SDS011;45213;32.654;-115.458;2022-10-23T13:01:56;4.32;;;1.70;;
59408;SDS011;45213;32.654;-115.458;2022-10-23T13:04:25;1.88;;;0.80;;
59408;SDS011;45213;32.654;-115.458;2022-10-23T13:06:56;3.63;;;0.60;;
59408;SDS011;45213;32.654;-115.458;2022-10-23T13:09:29;0.50;;;0.45;;
59408;SDS011;45213;32.654;-115.458;2022-10-23T13:12:13;1.00;;;0.40;;
59408;SDS011;45213;32.654;-115.458;2022-10-23T13:14:54;2.78;;;0.68;;
59408;SDS011;45213;32.654;-115.458;2022-10-23T13:20:15;2.13;;;0.30;;
59408;SDS011;45213;32.654;-115.458;2022-10-23T13:22:47;1.08;;;0.47;;
59408;SDS011;45213;32.654;-115.458;2022-10-23T13:25:22;2.58;;;0.50;;
59408;SDS011;45213;32.654;-115.458;2022-10-23T13:27:51;1.05;;;0.30;;
59408;SDS011;45213;32.654;-115.458;2022-10-23T13:30:41;0.40;;;0.40;;
59408;SDS011;45213;32.654;-115.458;2022-10-23T13:33:17;1.05;;;0.38;;
59408;SDS011;45213;32.654;-115.458;2022-10-23T13:38:36;1.85;;;0.45;;
59408;SDS011;45213;32.654;-115.458;2022-10-23T13:41:18;3.58;;;0.40;;
59408;SDS011;45213;32.654;-115.458;2022-10-23T13:43:46;2.90;;;0.60;;
59408;SDS011;45213;32.654;-115.458;2022-10-23T13:46:16;8.05;;;1.10;;
59408;SDS011;45213;32.654;-115.458;2022-10-23T13:48:44;6.32;;;0.80;;
59408;SDS011;45213;32.654;-115.458;2022-10-23T13:53:44;3.20;;;0.50;;
59408;SDS011;45213;32.654;-115.458;2022-10-23T13:56:12;4.90;;;0.47;;
59408;SDS011;45213;32.654;-115.458;2022-10-23T13:58:40;3.30;;;2.20;;
59408;SDS011;45213;32.654;-115.458;2022-10-23T14:01:11;2.88;;;2.58;;
59408;SDS011;45213;32.654;-115.458;2022-10-23T14:03:55;2.58;;;2.00;;
59408;SDS011;45213;32.654;-115.458;2022-10-23T14:06:23;2.33;;;0.85;;
59408;SDS011;45213;32.654;-115.458;2022-10-23T14:08:50;1.10;;;1.00;;
59408;SDS011;45213;32.654;-115.458;2022-10-23T14:11:17;4.82;;;2.10;;
59408;SDS011;45213;32.654;-115.458;2022-10-23T14:13:44;3.50;;;2.20;;
59408;SDS011;45213;32.654;-115.458;2022-10-23T14:16:11;3.10;;;1.45;;
59408;SDS011;45213;32.654;-115.458;2022-10-23T14:18:39;3.33;;;0.80;;
59408;SDS011;45213;32.654;-115.458;2022-10-23T14:21:06;0.57;;;0.30;;
59408;SDS011;45213;32.654;-115.458;2022-10-23T14:23:35;0.50;;;0.30;;
59408;SDS011;45213;32.654;-115.458;2022-10-23T14:26:02;0.77;;;0.20;;
59408;SDS011;45213;32.654;-115.458;2022-10-23T14:28:30;1.63;;;0.20;;
59408;SDS011;45213;32.654;-115.458;2022-10-23T14:31:01;0.60;;;0.40;;
59408;SDS011;45213;32.654;-115.458;2022-10-23T14:33:32;2.30;;;0.43;;
59408;SDS011;45213;32.654;-115.458;2022-10-23T14:35:59;0.93;;;0.20;;
59408;SDS011;45213;32.654;-115.458;2022-10-23T14:38:26;0.40;;;0.20;;
59408;SDS011;45213;32.654;-115.458;2022-10-23T14:40:53;1.13;;;0.22;;
59408;SDS011;45213;32.654;-115.458;2022-10-23T14:43:20;2.03;;;0.40;;
59408;SDS011;45213;32.654;-115.458;2022-10-23T14:45:47;2.00;;;0.40;;
59408;SDS011;45213;32.654;-115.458;2022-10-23T14:48:14;1.10;;;0.40;;
59408;SDS011;45213;32.654;-115.458;2022-10-23T14:50:41;1.05;;;0.47;;
59408;SDS011;45213;32.654;-115.458;2022-10-23T14:53:10;1.50;;;0.32;;
59408;SDS011;45213;32.654;-115.458;2022-10-23T14:55:37;2.08;;;0.32;;
59408;SDS011;45213;32.654;-115.458;2022-10-23T14:58:04;2.25;;;0.38;;
59408;SDS011;45213;32.654;-115.458;2022-10-23T15:00:31;1.83;;;0.50;;
59408;SDS011;45213;32.654;-115.458;2022-10-23T15:02:58;1.17;;;0.38;;
59408;SDS011;45213;32.654;-115.458;2022-10-23T15:05:25;0.93;;;0.30;;
59408;SDS011;45213;32.654;-115.458;2022-10-23T15:07:51;1.35;;;0.30;;
59408;SDS011;45213;32.654;-115.458;2022-10-23T15:10:19;1.20;;;0.20;;
59408;SDS011;45213;32.654;-115.458;2022-10-23T15:12:46;1.95;;;0.28;;
59408;SDS011;45213;32.654;-115.458;2022-10-23T15:15:13;2.58;;;0.50;;
59408;SDS011;45213;32.654;-115.458;2022-10-23T15:17:39;2.97;;;0.60;;
59408;SDS011;45213;32.654;-115.458;2022-10-23T15:20:06;6.32;;;1.38;;
59408;SDS011;45213;32.654;-115.458;2022-10-23T15:22:33;3.95;;;0.50;;
59408;SDS011;45213;32.654;-115.458;2022-10-23T15:25:00;2.85;;;0.80;;
59408;SDS011;45213;32.654;-115.458;2022-10-23T15:27:26;13.10;;;0.70;;
59408;SDS011;45213;32.654;-115.458;2022-10-23T15:29:53;14.20;;;1.00;;
59408;SDS011;45213;32.654;-115.458;2022-10-23T15:32:19;12.50;;;0.90;;
59408;SDS011;45213;32.654;-115.458;2022-10-23T15:34:46;11.55;;;1.35;;
59408;SDS011;45213;32.654;-115.458;2022-10-23T15:37:14;11.07;;;1.48;;
59408;SDS011;45213;32.654;-115.458;2022-10-23T15:39:40;22.95;;;2.13;;
59408;SDS011;45213;32.654;-115.458;2022-10-23T15:42:08;18.92;;;2.22;;
59408;SDS011;45213;32.654;-115.458;2022-10-23T15:44:35;19.63;;;2.20;;
59408;SDS011;45213;32.654;-115.458;2022-10-23T15:47:01;10.68;;;1.40;;
59408;SDS011;45213;32.654;-115.458;2022-10-23T15:49:28;14.82;;;1.92;;
59408;SDS011;45213;32.654;-115.458;2022-10-23T15:51:55;12.65;;;1.17;;
59408;SDS011;45213;32.654;-115.458;2022-10-23T15:54:22;14.63;;;1.27;;
59408;SDS011;45213;32.654;-115.458;2022-10-23T15:56:50;9.27;;;2.10;;
59408;SDS011;45213;32.654;-115.458;2022-10-23T15:59:18;15.10;;;1.90;;
59408;SDS011;45213;32.654;-115.458;2022-10-23T16:01:48;11.35;;;1.27;;
59408;SDS011;45213;32.654;-115.458;2022-10-23T16:04:15;20.63;;;2.35;;
59408;SDS011;45213;32.654;-115.458;2022-10-23T16:06:42;9.35;;;1.42;;
59408;SDS011;45213;32.654;-115.458;2022-10-23T16:09:09;10.13;;;0.95;;
59408;SDS011;45213;32.654;-115.458;2022-10-23T16:11:36;11.65;;;1.35;;
59408;SDS011;45213;32.654;-115.458;2022-10-23T16:14:04;7.18;;;1.08;;
59408;SDS011;45213;32.654;-115.458;2022-10-23T16:16:32;5.53;;;1.05;;
59408;SDS011;45213;32.654;-115.458;2022-10-23T16:18:59;4.88;;;1.00;;
59408;SDS011;45213;32.654;-115.458;2022-10-23T16:21:27;3.85;;;0.80;;
59408;SDS011;45213;32.654;-115.458;2022-10-23T16:23:56;2.70;;;0.65;;
59408;SDS011;45213;32.654;-115.458;2022-10-23T16:26:25;2.53;;;0.75;;
59408;SDS011;45213;32.654;-115.458;2022-10-23T16:28:57;3.88;;;0.70;;
59408;SDS011;45213;32.654;-115.458;2022-10-23T16:31:26;1.85;;;0.80;;
59408;SDS011;45213;32.654;-115.458;2022-10-23T16:33:55;8.07;;;1.00;;
59408;SDS011;45213;32.654;-115.458;2022-10-23T16:36:23;5.03;;;1.20;;
59408;SDS011;45213;32.654;-115.458;2022-10-23T16:39:23;1.77;;;0.75;;